Time;durP1;ratioP1;P1;durP2;ratioP2;P2;SDS_P1;SDS_P2;PMS_P1;PMS_P2;Temp;Humidity;BMP_temperature;BMP_pressure;BME280_temperature;BME280_humidity;BME280_pressure;Samples;Min_cycle;Max_cycle;Signal;HPM_P1;HPM_P2
2024/02/19 00:00:19;;;;;;;19.38;3.08;;;8.10;99.90;;;;;;5054176;28;20049;-65
2024/02/19 00:02:45;;;;;;;22.15;2.97;;;8.10;99.90;;;;;;5055182;28;20120;-65
2024/02/19 00:05:10;;;;;;;23.38;3.20;;;8.10;99.90;;;;;;5053619;28;20389;-68
2024/02/19 00:07:36;;;;;;;18.38;2.83;;;8.10;99.90;;;;;;5053936;28;20613;-63
2024/02/19 00:10:02;;;;;;;15.43;2.45;;;8.10;99.90;;;;;;5053610;28;20052;-63
2024/02/19 00:12:27;;;;;;;12.68;2.30;;;8.10;99.90;;;;;;5057596;28;20052;-63
2024/02/19 00:14:54;;;;;;;13.75;2.00;;;8.10;99.90;;;;;;5043783;28;20037;-63
2024/02/19 00:17:20;;;;;;;16.73;2.38;;;8.00;99.90;;;;;;5046471;28;20504;-63
2024/02/19 00:19:45;;;;;;;19.65;2.85;;;8.00;99.90;;;;;;5064160;28;20047;-63
2024/02/19 00:22:11;;;;;;;11.95;2.60;;;8.00;99.90;;;;;;5049817;28;20065;-67
2024/02/19 00:24:39;;;;;;;13.02;2.65;;;8.00;99.90;;;;;;5047951;28;20091;-63
2024/02/19 00:27:04;;;;;;;16.85;2.05;;;8.00;99.90;;;;;;5052249;28;20045;-64
2024/02/19 00:29:30;;;;;;;11.70;1.95;;;8.10;99.90;;;;;;5051656;28;20519;-63
2024/02/19 00:31:56;;;;;;;14.77;2.40;;;8.00;99.90;;;;;;5046853;28;20119;-63
2024/02/19 00:34:21;;;;;;;12.07;1.73;;;8.00;99.90;;;;;;5052212;28;20072;-66
2024/02/19 00:36:47;;;;;;;8.65;1.50;;;8.00;99.90;;;;;;5051702;28;20037;-63
2024/02/19 00:39:13;;;;;;;7.20;1.48;;;8.00;99.90;;;;;;5051617;28;20029;-63
2024/02/19 00:41:39;;;;;;;11.02;1.80;;;8.00;99.90;;;;;;5056452;28;20029;-63
2024/02/19 00:44:05;;;;;;;16.85;1.90;;;8.00;99.90;;;;;;5052078;28;20048;-63
2024/02/19 00:46:31;;;;;;;9.65;1.83;;;8.00;99.90;;;;;;5051891;28;20131;-63
2024/02/19 00:48:56;;;;;;;13.43;1.88;;;8.00;99.90;;;;;;5049631;28;20049;-63
2024/02/19 00:51:22;;;;;;;6.97;1.20;;;8.00;99.90;;;;;;5049951;28;20493;-63
2024/02/19 00:53:47;;;;;;;11.68;1.40;;;8.00;99.90;;;;;;5051979;28;20025;-65
2024/02/19 00:56:14;;;;;;;12.02;2.08;;;8.00;99.90;;;;;;5048413;28;20072;-65
2024/02/19 00:58:39;;;;;;;10.85;1.20;;;8.00;99.90;;;;;;5056560;28;20365;-63
2024/02/19 01:01:05;;;;;;;6.97;1.45;;;8.00;99.90;;;;;;5053966;28;20044;-63
2024/02/19 01:03:31;;;;;;;4.57;1.20;;;7.90;99.90;;;;;;5061389;28;20111;-63
2024/02/19 01:05:56;;;;;;;10.05;1.45;;;7.90;99.90;;;;;;5057699;28;20055;-66
2024/02/19 01:08:22;;;;;;;4.47;1.10;;;7.90;99.90;;;;;;5045312;28;20471;-62
2024/02/19 01:10:47;;;;;;;9.63;1.60;;;7.90;99.90;;;;;;5051582;28;20037;-63
2024/02/19 01:13:13;;;;;;;6.25;1.08;;;7.90;99.90;;;;;;5043792;28;20037;-63
2024/02/19 01:15:38;;;;;;;5.43;1.50;;;7.90;99.90;;;;;;5050809;28;20051;-66
2024/02/19 01:18:04;;;;;;;8.60;1.70;;;7.90;99.90;;;;;;5051422;28;20473;-63
2024/02/19 01:20:30;;;;;;;8.75;1.20;;;7.90;99.90;;;;;;5045902;28;20095;-63
2024/02/19 01:22:57;;;;;;;7.97;1.25;;;7.90;99.90;;;;;;5043086;28;20045;-63
2024/02/19 01:25:24;;;;;;;10.02;1.42;;;7.90;99.90;;;;;;5057407;28;20040;-64
2024/02/19 01:27:50;;;;;;;7.00;1.50;;;7.90;99.90;;;;;;5053642;28;20525;-63
2024/02/19 01:30:15;;;;;;;7.05;1.73;;;7.90;99.90;;;;;;5042432;28;20055;-63
2024/02/19 01:32:41;;;;;;;11.80;1.90;;;7.90;99.90;;;;;;5045031;28;20376;-66
2024/02/19 01:35:08;;;;;;;6.55;2.20;;;7.90;99.90;;;;;;5047521;28;20047;-63
2024/02/19 01:37:35;;;;;;;9.85;1.55;;;8.00;99.90;;;;;;5053924;28;20090;-63
2024/02/19 01:40:07;;;;;;;6.00;1.65;;;8.00;99.90;;;;;;5041228;28;20063;-65
2024/02/19 01:42:33;;;;;;;;;;;8.00;99.90;;;;;;5051456;28;20037;-67
2024/02/19 01:44:58;;;;;;;7.00;1.40;;;8.00;99.90;;;;;;5051205;28;19981;-63
2024/02/19 01:47:24;;;;;;;12.48;1.80;;;7.90;99.90;;;;;;5041629;28;20124;-63
2024/02/19 01:49:50;;;;;;;11.45;1.67;;;7.90;99.90;;;;;;5049668;28;20044;-63
2024/02/19 01:52:17;;;;;;;11.18;2.13;;;7.90;99.90;;;;;;5050960;28;20033;-65
2024/02/19 01:54:43;;;;;;;9.85;1.95;;;8.00;99.90;;;;;;5047570;28;20116;-63
2024/02/19 01:57:09;;;;;;;11.68;1.88;;;8.00;99.90;;;;;;5050434;28;20041;-63
2024/02/19 01:59:34;;;;;;;12.15;2.15;;;8.00;99.90;;;;;;5046164;28;20036;-63
2024/02/19 02:02:01;;;;;;;14.32;1.83;;;8.00;99.90;;;;;;5048629;28;20095;-64
2024/02/19 02:04:28;;;;;;;14.50;2.38;;;8.00;99.90;;;;;;5050575;28;20044;-63
2024/02/19 02:06:54;;;;;;;13.18;2.25;;;8.00;99.90;;;;;;5043983;28;20110;-69
2024/02/19 02:09:20;;;;;;;7.57;2.47;;;7.90;99.90;;;;;;5047090;28;20045;-63
2024/02/19 02:11:46;;;;;;;16.38;2.38;;;7.90;99.90;;;;;;5045362;28;20111;-63
2024/02/19 02:14:11;;;;;;;11.35;2.70;;;7.90;99.90;;;;;;5055885;28;20036;-63
2024/02/19 02:16:37;;;;;;;7.90;1.70;;;7.90;99.90;;;;;;5055649;28;20037;-63
2024/02/19 02:19:03;;;;;;;15.60;2.83;;;7.90;99.90;;;;;;5049450;28;20037;-66
2024/02/19 02:21:30;;;;;;;14.52;2.05;;;7.90;99.90;;;;;;5041169;28;20279;-63
2024/02/19 02:23:55;;;;;;;10.32;2.05;;;7.90;99.90;;;;;;5058454;28;20408;-63
2024/02/19 02:26:21;;;;;;;14.73;2.40;;;7.90;99.90;;;;;;5047583;28;20045;-63
2024/02/19 02:28:47;;;;;;;14.07;2.60;;;7.90;99.90;;;;;;5049566;28;20041;-67
2024/02/19 02:31:12;;;;;;;14.00;2.65;;;7.90;99.90;;;;;;5047717;28;20033;-66
2024/02/19 02:33:38;;;;;;;12.05;1.98;;;7.90;99.90;;;;;;5059782;28;20064;-63
2024/02/19 02:36:05;;;;;;;18.80;2.45;;;7.90;99.90;;;;;;5037521;28;20127;-63
2024/02/19 02:38:31;;;;;;;17.08;2.40;;;7.90;99.90;;;;;;5040893;28;20041;-65
2024/02/19 02:40:57;;;;;;;14.73;2.53;;;7.90;99.90;;;;;;5046151;28;20038;-63
2024/02/19 02:43:22;;;;;;;16.13;1.80;;;7.90;99.90;;;;;;5046708;28;20117;-62
2024/02/19 02:45:48;;;;;;;11.75;1.98;;;7.90;99.90;;;;;;5045315;28;20484;-63
2024/02/19 02:48:14;;;;;;;13.65;2.42;;;7.90;99.90;;;;;;5044952;28;20033;-63
2024/02/19 02:50:40;;;;;;;10.13;2.00;;;8.00;99.90;;;;;;5040795;28;20507;-63
2024/02/19 02:53:05;;;;;;;14.63;1.92;;;8.00;99.90;;;;;;5046181;28;20120;-66
2024/02/19 02:55:31;;;;;;;14.70;1.77;;;7.90;99.90;;;;;;5044873;28;20064;-63
2024/02/19 02:57:56;;;;;;;13.80;2.00;;;8.00;99.90;;;;;;5053153;28;20033;-63
2024/02/19 03:00:22;;;;;;;16.58;2.33;;;8.00;99.90;;;;;;5047705;28;20099;-63
2024/02/19 03:02:48;;;;;;;12.23;1.88;;;8.00;99.90;;;;;;5040786;28;20048;-65
2024/02/19 03:05:13;;;;;;;11.70;2.22;;;8.00;99.90;;;;;;5056652;28;20037;-63
2024/02/19 03:07:39;;;;;;;14.23;2.25;;;8.00;99.90;;;;;;5048430;28;20116;-63
2024/02/19 03:10:05;;;;;;;18.45;2.28;;;8.00;99.90;;;;;;5057674;28;20083;-63
2024/02/19 03:12:31;;;;;;;15.15;2.58;;;8.10;99.90;;;;;;5049241;28;20496;-63
2024/02/19 03:14:57;;;;;;;10.40;2.00;;;8.10;99.90;;;;;;5044222;28;20120;-63
2024/02/19 03:17:22;;;;;;;14.88;2.13;;;8.10;99.90;;;;;;5048841;28;20113;-63
2024/02/19 03:19:48;;;;;;;20.95;2.08;;;8.00;99.90;;;;;;5045266;28;20040;-65
2024/02/19 03:22:14;;;;;;;17.10;2.42;;;8.10;99.90;;;;;;5047678;28;20108;-63
2024/02/19 03:24:40;;;;;;;16.90;2.40;;;8.10;99.90;;;;;;5062260;28;20033;-63
2024/02/19 03:27:05;;;;;;;12.73;2.38;;;8.10;99.90;;;;;;5048656;28;20452;-63
2024/02/19 03:29:31;;;;;;;19.17;2.45;;;8.10;99.90;;;;;;5049667;28;20645;-63
2024/02/19 03:31:57;;;;;;;20.25;2.70;;;8.00;99.90;;;;;;5043299;28;20377;-63
2024/02/19 03:34:23;;;;;;;20.17;2.92;;;8.10;99.90;;;;;;5049609;28;20033;-66
2024/02/19 03:36:49;;;;;;;18.00;2.40;;;8.00;99.90;;;;;;5052366;28;20526;-63
2024/02/19 03:39:15;;;;;;;15.98;2.53;;;8.10;99.90;;;;;;5049462;28;20041;-63
2024/02/19 03:41:41;;;;;;;11.80;2.08;;;8.00;99.90;;;;;;5047144;28;20040;-64
2024/02/19 03:44:07;;;;;;;16.05;2.13;;;8.00;99.90;;;;;;5043016;28;20069;-68
2024/02/19 03:46:32;;;;;;;21.08;2.60;;;8.00;99.90;;;;;;5043117;28;20048;-63
2024/02/19 03:48:58;;;;;;;18.88;2.40;;;8.00;99.90;;;;;;5052248;28;20119;-63
2024/02/19 03:51:24;;;;;;;11.27;2.13;;;8.00;99.90;;;;;;5058337;28;20037;-68
2024/02/19 03:53:50;;;;;;;21.02;2.60;;;8.00;99.90;;;;;;5052171;28;20049;-63
2024/02/19 03:56:17;;;;;;;13.93;2.53;;;8.00;99.90;;;;;;5047450;28;20052;-63
2024/02/19 03:58:43;;;;;;;19.38;2.83;;;8.00;99.90;;;;;;5046415;28;20037;-63
2024/02/19 04:01:08;;;;;;;19.15;3.17;;;8.00;99.90;;;;;;5046227;28;20080;-63
2024/02/19 04:03:34;;;;;;;19.85;3.40;;;8.00;99.90;;;;;;5053315;28;20040;-63
2024/02/19 04:06:00;;;;;;;23.35;3.22;;;8.00;99.90;;;;;;5046790;28;20048;-64
2024/02/19 04:08:25;;;;;;;23.23;2.85;;;8.00;99.90;;;;;;5052560;28;20041;-68
2024/02/19 04:10:51;;;;;;;25.85;3.40;;;8.00;99.90;;;;;;5046006;28;20040;-63
2024/02/19 04:13:16;;;;;;;26.05;3.25;;;8.00;99.90;;;;;;5047430;28;20041;-64
2024/02/19 04:15:42;;;;;;;23.98;3.35;;;8.00;99.90;;;;;;5051664;28;20041;-63
2024/02/19 04:18:07;;;;;;;23.75;3.67;;;8.00;99.90;;;;;;5052385;28;20044;-66
2024/02/19 04:20:33;;;;;;;21.10;3.22;;;8.00;99.90;;;;;;5048660;28;20075;-63
2024/02/19 04:22:59;;;;;;;26.20;2.95;;;8.00;99.90;;;;;;5057477;28;20072;-63
2024/02/19 04:25:25;;;;;;;24.58;3.30;;;8.00;99.90;;;;;;5060696;28;20076;-64
2024/02/19 04:27:51;;;;;;;22.17;3.83;;;8.00;99.90;;;;;;5050791;28;20480;-63
2024/02/19 04:30:17;;;;;;;29.60;4.13;;;8.00;99.90;;;;;;5047090;28;20103;-63
2024/02/19 04:32:43;;;;;;;28.42;4.55;;;8.00;99.90;;;;;;5051246;28;20029;-68
2024/02/19 04:35:08;;;;;;;33.08;4.60;;;8.00;99.90;;;;;;5040561;28;20041;-66
2024/02/19 04:37:34;;;;;;;29.10;3.88;;;8.00;99.90;;;;;;5049307;28;20460;-63
2024/02/19 04:40:00;;;;;;;30.50;3.70;;;8.00;99.90;;;;;;5053250;28;20033;-63
2024/02/19 04:42:26;;;;;;;23.10;3.50;;;8.00;99.90;;;;;;5050434;28;20033;-63
2024/02/19 04:44:51;;;;;;;26.13;3.88;;;8.00;99.90;;;;;;5050479;28;20044;-63
2024/02/19 04:47:18;;;;;;;21.70;4.22;;;8.00;99.90;;;;;;5051383;28;20275;-63
2024/02/19 04:49:44;;;;;;;31.40;4.22;;;8.00;99.90;;;;;;5051174;28;20136;-63
2024/02/19 04:52:09;;;;;;;26.20;4.28;;;8.00;99.90;;;;;;5049494;28;20048;-63
2024/02/19 04:54:36;;;;;;;29.55;4.35;;;8.00;99.90;;;;;;5050838;28;20033;-65
2024/02/19 04:57:01;;;;;;;28.55;3.70;;;8.00;99.90;;;;;;5050864;28;20403;-63
2024/02/19 04:59:29;;;;;;;20.80;3.88;;;8.00;99.90;;;;;;5052420;28;20108;-65
2024/02/19 05:01:55;;;;;;;27.90;4.18;;;8.00;99.90;;;;;;5045316;28;20401;-67
2024/02/19 05:04:21;;;;;;;25.17;3.80;;;8.00;99.90;;;;;;5049755;28;20052;-63
2024/02/19 05:06:48;;;;;;;29.02;4.32;;;8.00;99.90;;;;;;5050770;28;20397;-67
2024/02/19 05:09:14;;;;;;;24.30;3.67;;;8.00;99.90;;;;;;5051413;28;20083;-63
2024/02/19 05:11:40;;;;;;;34.03;4.35;;;8.00;99.90;;;;;;5051144;28;20045;-63
2024/02/19 05:14:05;;;;;;;29.67;3.83;;;8.10;99.90;;;;;;5048852;28;20069;-64
2024/02/19 05:16:31;;;;;;;31.02;4.28;;;8.00;99.90;;;;;;5044728;28;20041;-63
2024/02/19 05:18:59;;;;;;;30.13;3.92;;;8.00;99.90;;;;;;5050958;28;20037;-63
2024/02/19 05:21:25;;;;;;;29.02;4.53;;;8.10;99.90;;;;;;5050672;28;20045;-63
2024/02/19 05:23:51;;;;;;;26.30;4.15;;;8.10;99.90;;;;;;5050836;28;20043;-63
2024/02/19 05:26:26;;;;;;;20.92;3.55;;;8.00;99.90;;;;;;5051178;28;20036;-63
2024/02/19 05:28:55;;;;;;;29.48;4.32;;;8.10;99.90;;;;;;5042478;28;20082;-66
2024/02/19 05:31:39;;;;;;;25.50;4.15;;;8.00;99.90;;;;;;5050764;28;20041;-63
2024/02/19 05:34:06;;;;;;;29.02;4.70;;;8.00;99.90;;;;;;5048846;28;20044;-63
2024/02/19 05:36:32;;;;;;;26.13;4.80;;;8.00;99.90;;;;;;5045927;28;20097;-66
2024/02/19 05:38:58;;;;;;;32.70;4.65;;;8.00;99.90;;;;;;5047750;28;20044;-68
2024/02/19 05:41:25;;;;;;;30.08;4.47;;;8.10;99.90;;;;;;5049056;28;20033;-68
2024/02/19 05:43:50;;;;;;;30.15;4.32;;;8.10;99.90;;;;;;5043021;28;20040;-64
2024/02/19 05:46:16;;;;;;;30.25;5.15;;;8.10;99.90;;;;;;5050431;28;20048;-66
2024/02/19 05:48:42;;;;;;;27.02;4.32;;;8.10;99.90;;;;;;5052677;28;20076;-63
2024/02/19 05:51:08;;;;;;;28.13;4.22;;;8.10;99.90;;;;;;5044959;28;20072;-63
2024/02/19 05:53:34;;;;;;;34.67;4.47;;;8.10;99.90;;;;;;5046354;28;20035;-63
2024/02/19 05:56:04;;;;;;;35.83;4.05;;;8.10;99.90;;;;;;5050397;28;20048;-63
2024/02/19 05:58:32;;;;;;;31.88;4.50;;;8.10;99.90;;;;;;5055112;28;20041;-63
2024/02/19 06:00:58;;;;;;;26.80;3.85;;;8.10;99.90;;;;;;5059678;28;20580;-65
2024/02/19 06:03:26;;;;;;;41.08;5.20;;;8.10;99.90;;;;;;5046273;28;20128;-62
2024/02/19 06:05:52;;;;;;;34.22;5.28;;;8.10;99.90;;;;;;5056348;28;20155;-66
2024/02/19 06:08:18;;;;;;;30.88;4.65;;;8.10;99.90;;;;;;5044425;28;20128;-66
2024/02/19 06:10:46;;;;;;;32.90;4.28;;;8.00;99.90;;;;;;5043950;28;20123;-65
2024/02/19 06:13:13;;;;;;;33.00;4.22;;;8.00;99.90;;;;;;5048939;28;20043;-66
2024/02/19 06:15:38;;;;;;;29.80;4.28;;;8.00;99.90;;;;;;5043309;28;20068;-66
2024/02/19 06:18:05;;;;;;;32.28;3.78;;;8.00;99.90;;;;;;5049412;28;20064;-66
2024/02/19 06:20:30;;;;;;;23.75;4.25;;;8.00;99.90;;;;;;5050756;28;20031;-66
2024/02/19 06:22:56;;;;;;;33.40;4.55;;;8.00;99.90;;;;;;5050156;28;20025;-64
2024/02/19 06:25:21;;;;;;;34.10;4.35;;;8.10;99.90;;;;;;5046929;28;20086;-66
2024/02/19 06:27:47;;;;;;;30.58;4.28;;;8.10;99.90;;;;;;5048693;28;20385;-66
2024/02/19 06:30:13;;;;;;;30.20;4.35;;;8.10;99.90;;;;;;5049535;28;20087;-66
2024/02/19 06:32:38;;;;;;;31.83;4.82;;;8.10;99.90;;;;;;5045424;28;20037;-65
2024/02/19 06:35:04;;;;;;;41.15;5.82;;;8.10;99.90;;;;;;5052860;28;20047;-65
2024/02/19 06:37:30;;;;;;;37.13;5.38;;;8.10;99.90;;;;;;5055717;28;20037;-65
2024/02/19 06:39:56;;;;;;;34.72;4.60;;;8.10;99.90;;;;;;5044195;28;20040;-65
2024/02/19 06:42:22;;;;;;;33.95;4.45;;;8.10;99.90;;;;;;5051700;28;20091;-65
2024/02/19 06:44:48;;;;;;;30.35;4.60;;;8.10;99.90;;;;;;5047978;28;20045;-65
2024/02/19 06:47:13;;;;;;;29.42;4.40;;;8.10;99.90;;;;;;5041681;28;20048;-65
2024/02/19 06:49:39;;;;;;;29.42;5.32;;;8.10;99.90;;;;;;5044959;28;20056;-65
2024/02/19 06:52:05;;;;;;;27.60;4.63;;;8.10;99.90;;;;;;5051239;28;20507;-65
2024/02/19 06:54:30;;;;;;;31.55;5.80;;;8.10;99.90;;;;;;5053815;28;20037;-65
2024/02/19 06:56:56;;;;;;;32.65;4.55;;;8.10;99.90;;;;;;5048562;28;20120;-65
2024/02/19 06:59:22;;;;;;;31.83;4.50;;;8.10;99.90;;;;;;5049022;28;20039;-65
2024/02/19 07:01:47;;;;;;;28.17;5.00;;;8.10;99.90;;;;;;5036467;28;20037;-65
2024/02/19 07:04:13;;;;;;;33.45;6.07;;;8.10;99.90;;;;;;5056682;28;20036;-65
2024/02/19 07:06:39;;;;;;;40.17;6.35;;;8.10;99.90;;;;;;5049643;28;20068;-65
2024/02/19 07:09:05;;;;;;;25.90;4.82;;;8.10;99.90;;;;;;5041671;28;20041;-65
2024/02/19 07:11:30;;;;;;;30.73;5.25;;;8.10;99.90;;;;;;5039841;28;20044;-65
2024/02/19 07:13:56;;;;;;;37.75;6.07;;;8.10;99.90;;;;;;5050123;28;20045;-66
2024/02/19 07:16:22;;;;;;;29.48;5.63;;;8.10;99.90;;;;;;5041628;28;20045;-65
2024/02/19 07:18:49;;;;;;;24.88;5.30;;;8.20;99.90;;;;;;5047784;28;20044;-65
2024/02/19 07:21:15;;;;;;;35.53;6.15;;;8.20;99.90;;;;;;5052454;28;20037;-65
2024/02/19 07:23:41;;;;;;;28.52;5.65;;;8.20;99.90;;;;;;5052646;28;20087;-65
2024/02/19 07:26:07;;;;;;;40.90;6.90;;;8.20;99.90;;;;;;5053206;28;20052;-66
2024/02/19 07:28:32;;;;;;;28.95;6.05;;;8.20;99.90;;;;;;5051314;28;20390;-65
2024/02/19 07:30:58;;;;;;;38.67;6.70;;;8.30;99.90;;;;;;5049369;28;20116;-65
2024/02/19 07:33:27;;;;;;;31.85;5.95;;;8.30;99.90;;;;;;5056161;28;20537;-65
2024/02/19 07:35:52;;;;;;;31.92;6.53;;;8.30;99.90;;;;;;5047329;28;20073;-65
2024/02/19 07:38:20;;;;;;;30.42;6.18;;;8.30;99.90;;;;;;5052011;28;20064;-65
2024/02/19 07:40:46;;;;;;;26.40;6.30;;;8.30;99.90;;;;;;5044319;28;20468;-65
2024/02/19 07:43:12;;;;;;;31.65;6.35;;;8.40;99.90;;;;;;5053981;28;20040;-66
2024/02/19 07:45:38;;;;;;;36.75;6.80;;;8.30;99.90;;;;;;5052981;28;20044;-66
2024/02/19 07:48:06;;;;;;;33.22;6.68;;;8.30;99.90;;;;;;5058680;28;20062;-66
2024/02/19 07:50:32;;;;;;;32.53;7.03;;;8.30;99.90;;;;;;5052200;28;20060;-66
2024/02/19 07:52:58;;;;;;;35.28;6.47;;;8.30;99.90;;;;;;5058738;28;20067;-65
2024/02/19 07:55:25;;;;;;;35.63;7.45;;;8.40;99.90;;;;;;5063716;28;20377;-67
2024/02/19 07:57:51;;;;;;;35.80;6.97;;;8.50;99.90;;;;;;5053028;28;20025;-65
2024/02/19 08:00:17;;;;;;;33.63;7.80;;;8.50;99.90;;;;;;5049481;28;20040;-65
2024/02/19 08:02:43;;;;;;;31.58;8.00;;;8.50;99.90;;;;;;5051473;28;20087;-65
2024/02/19 08:05:08;;;;;;;29.45;7.35;;;8.60;99.90;;;;;;5049557;28;20080;-65
2024/02/19 08:07:34;;;;;;;32.38;7.70;;;8.60;99.90;;;;;;5047181;28;20037;-65
2024/02/19 08:10:00;;;;;;;31.55;7.72;;;8.60;99.90;;;;;;5054192;28;20431;-65
2024/02/19 08:12:25;;;;;;;33.33;8.05;;;8.60;99.90;;;;;;5057345;28;20041;-65
2024/02/19 08:14:51;;;;;;;34.72;6.88;;;8.70;99.90;;;;;;5052828;28;20033;-65
2024/02/19 08:17:17;;;;;;;27.02;6.35;;;8.80;99.90;;;;;;5054559;28;20043;-65
2024/02/19 08:19:43;;;;;;;30.92;7.47;;;8.80;99.90;;;;;;5047141;28;20060;-65
2024/02/19 08:22:09;;;;;;;29.75;7.15;;;8.90;99.90;;;;;;5053385;28;20040;-65
2024/02/19 08:24:36;;;;;;;29.95;7.05;;;8.90;99.90;;;;;;5048967;28;20037;-65
2024/02/19 08:27:02;;;;;;;32.75;7.30;;;9.00;99.90;;;;;;5053257;28;20049;-65
2024/02/19 08:29:29;;;;;;;23.55;7.07;;;9.00;99.90;;;;;;5052066;28;20048;-65
2024/02/19 08:31:54;;;;;;;29.92;7.88;;;9.00;99.90;;;;;;5048866;28;20037;-65
2024/02/19 08:34:20;;;;;;;32.08;7.47;;;9.00;99.90;;;;;;5046176;28;20172;-65
2024/02/19 08:36:46;;;;;;;29.35;6.57;;;9.00;99.90;;;;;;5045273;28;20048;-65
2024/02/19 08:39:11;;;;;;;34.72;8.05;;;9.10;99.90;;;;;;5048677;28;20064;-65
2024/02/19 08:41:37;;;;;;;35.92;7.90;;;9.10;99.90;;;;;;5054516;28;20477;-65
2024/02/19 08:44:03;;;;;;;31.45;7.50;;;9.10;99.90;;;;;;5056344;28;20068;-65
2024/02/19 08:46:29;;;;;;;29.42;8.45;;;9.10;99.90;;;;;;5052311;28;20090;-65
2024/02/19 08:48:56;;;;;;;35.63;7.38;;;9.10;99.90;;;;;;5046931;28;20044;-65
2024/02/19 08:51:21;;;;;;;32.58;7.75;;;9.20;99.90;;;;;;5050406;28;20051;-66
2024/02/19 08:53:47;;;;;;;32.20;7.20;;;9.20;99.90;;;;;;5064836;28;20515;-65
2024/02/19 08:56:13;;;;;;;34.42;7.45;;;9.20;99.90;;;;;;5044478;28;20132;-65
2024/02/19 08:58:38;;;;;;;25.48;6.45;;;9.20;99.90;;;;;;5044928;28;20382;-65
2024/02/19 09:01:10;;;;;;;35.55;7.40;;;9.20;99.90;;;;;;5050358;28;20401;-64
2024/02/19 09:03:38;;;;;;;29.02;6.78;;;9.20;99.90;;;;;;5046996;28;20450;-64
2024/02/19 09:06:05;;;;;;;28.50;7.22;;;9.20;99.90;;;;;;5042346;28;20041;-65
2024/02/19 09:08:30;;;;;;;30.55;7.00;;;9.30;99.90;;;;;;5044541;28;20052;-65
2024/02/19 09:10:56;;;;;;;25.35;6.70;;;9.30;99.90;;;;;;5046656;28;20120;-65
2024/02/19 09:13:22;;;;;;;24.30;6.97;;;9.30;99.90;;;;;;5052041;28;20041;-64
2024/02/19 09:15:47;;;;;;;26.80;6.40;;;9.30;99.90;;;;;;5054038;28;20032;-64
2024/02/19 09:18:13;;;;;;;24.60;7.20;;;9.40;99.90;;;;;;5051793;28;20112;-64
2024/02/19 09:20:39;;;;;;;27.90;7.38;;;9.40;99.90;;;;;;5049086;28;20124;-64
2024/02/19 09:23:04;;;;;;;29.75;6.95;;;9.40;99.90;;;;;;5049956;28;20060;-64
2024/02/19 09:25:31;;;;;;;28.80;7.57;;;9.40;99.90;;;;;;5051399;28;20041;-65
2024/02/19 09:27:57;;;;;;;30.13;9.27;;;9.40;99.90;;;;;;5053003;28;20045;-64
2024/02/19 09:30:23;;;;;;;29.27;9.15;;;9.40;99.90;;;;;;5046423;28;20124;-65
2024/02/19 09:32:49;;;;;;;26.15;9.15;;;9.40;99.90;;;;;;5051853;28;20496;-64
2024/02/19 09:35:16;;;;;;;31.73;9.57;;;9.30;99.90;;;;;;5050120;28;20102;-65
2024/02/19 09:37:42;;;;;;;29.77;9.15;;;9.40;99.90;;;;;;5047526;28;20044;-64
2024/02/19 09:40:08;;;;;;;30.58;9.02;;;9.40;99.90;;;;;;5050268;28;20438;-64
2024/02/19 09:42:35;;;;;;;28.33;8.10;;;9.40;99.90;;;;;;5048609;28;20033;-64
2024/02/19 09:45:01;;;;;;;30.58;9.45;;;9.40;99.90;;;;;;5051133;28;20043;-64
2024/02/19 09:47:28;;;;;;;32.55;8.80;;;9.50;99.90;;;;;;5050123;28;20722;-64
2024/02/19 09:49:54;;;;;;;29.05;8.73;;;9.50;99.90;;;;;;5049725;28;20032;-64
2024/02/19 09:52:24;;;;;;;30.80;8.45;;;9.50;99.90;;;;;;5048980;28;20563;-64
2024/02/19 09:54:51;;;;;;;30.90;8.45;;;9.40;99.90;;;;;;5049701;28;20045;-64
2024/02/19 09:57:20;;;;;;;26.67;7.13;;;9.40;99.90;;;;;;5048295;28;20076;-64
2024/02/19 09:59:48;;;;;;;23.88;7.10;;;9.50;99.90;;;;;;5056342;28;20131;-64
2024/02/19 10:02:18;;;;;;;26.35;7.68;;;9.40;99.90;;;;;;5047296;28;20040;-65
2024/02/19 10:04:47;;;;;;;30.48;7.25;;;9.40;99.90;;;;;;5051714;28;20074;-64
2024/02/19 10:07:19;;;;;;;18.23;6.63;;;9.50;99.90;;;;;;5060687;28;20032;-64
2024/02/19 10:09:46;;;;;;;22.67;6.80;;;9.40;99.90;;;;;;5052986;28;20041;-64
2024/02/19 10:12:12;;;;;;;22.55;7.15;;;9.50;99.90;;;;;;5049596;28;20420;-65
2024/02/19 10:14:38;;;;;;;25.60;7.47;;;9.50;99.90;;;;;;5044941;28;20043;-66
2024/02/19 10:17:05;;;;;;;37.10;7.47;;;9.50;99.90;;;;;;5045703;28;20053;-68
2024/02/19 10:19:31;;;;;;;25.60;6.53;;;9.50;99.90;;;;;;5051395;28;20068;-64
2024/02/19 10:21:58;;;;;;;23.27;6.82;;;9.50;99.90;;;;;;5049060;28;20048;-64
2024/02/19 10:24:23;;;;;;;30.65;7.00;;;9.60;99.90;;;;;;5048202;28;20032;-64
2024/02/19 10:26:49;;;;;;;25.20;6.90;;;9.60;99.90;;;;;;5048772;28;20090;-67
2024/02/19 10:29:15;;;;;;;34.08;6.68;;;9.60;99.90;;;;;;5045477;28;20042;-62
2024/02/19 10:31:41;;;;;;;21.88;6.20;;;9.60;99.90;;;;;;5046795;28;20048;-64
2024/02/19 10:34:11;;;;;;;19.85;6.47;;;9.60;99.90;;;;;;5049115;28;20036;-64
2024/02/19 10:36:37;;;;;;;22.48;6.22;;;9.80;99.90;;;;;;5047440;28;20062;-64
2024/02/19 10:39:05;;;;;;;26.00;6.72;;;9.80;99.90;;;;;;5056468;28;20112;-64
2024/02/19 10:41:35;;;;;;;23.63;6.53;;;9.80;99.90;;;;;;5056392;28;20048;-64
2024/02/19 10:44:01;;;;;;;20.80;5.95;;;9.80;99.90;;;;;;5045050;28;20151;-64
2024/02/19 10:46:27;;;;;;;21.90;6.43;;;9.80;99.90;;;;;;5048721;28;20064;-64
2024/02/19 10:48:54;;;;;;;22.35;5.88;;;9.90;99.90;;;;;;5043873;28;20079;-64
2024/02/19 10:51:21;;;;;;;22.42;6.35;;;9.90;99.90;;;;;;5045256;28;20568;-64
2024/02/19 10:53:56;;;;;;;24.77;6.43;;;9.90;99.90;;;;;;5048444;28;20083;-64
2024/02/19 10:56:22;;;;;;;24.50;6.30;;;9.90;99.90;;;;;;5046935;28;20084;-64
2024/02/19 10:58:59;;;;;;;22.70;5.90;;;10.00;99.90;;;;;;5054077;28;20511;-64
2024/02/19 11:01:46;;;;;;;21.35;6.50;;;10.00;99.90;;;;;;5036682;28;20042;-64
2024/02/19 11:04:18;;;;;;;22.17;6.13;;;10.00;99.90;;;;;;5052633;28;20098;-64
2024/02/19 11:06:48;;;;;;;22.95;5.07;;;10.00;99.90;;;;;;5046660;28;20053;-64
2024/02/19 11:09:15;;;;;;;19.10;4.80;;;10.10;99.90;;;;;;5049570;28;20444;-64
2024/02/19 11:11:52;;;;;;;18.38;5.72;;;10.10;99.90;;;;;;5053690;28;20442;-64
2024/02/19 11:14:21;;;;;;;23.95;5.68;;;10.10;99.90;;;;;;5048200;28;20041;-64
2024/02/19 11:16:48;;;;;;;23.10;5.05;;;10.10;99.90;;;;;;5048208;28;20091;-64
2024/02/19 11:19:13;;;;;;;14.98;4.75;;;10.10;99.90;;;;;;5052039;28;20033;-64
2024/02/19 11:21:39;;;;;;;22.05;5.20;;;10.20;99.90;;;;;;5048147;28;20044;-64
2024/02/19 11:24:07;;;;;;;21.73;5.03;;;10.10;99.90;;;;;;5045503;28;20096;-64
2024/02/19 11:26:33;;;;;;;17.33;5.35;;;10.10;99.90;;;;;;5051579;28;20040;-64
2024/02/19 11:28:59;;;;;;;18.67;4.32;;;10.10;99.90;;;;;;5051615;28;20099;-64
2024/02/19 11:31:25;;;;;;;17.65;5.28;;;10.10;99.90;;;;;;5041329;28;20079;-64
2024/02/19 11:33:50;;;;;;;17.10;4.50;;;10.10;99.90;;;;;;5046803;28;20116;-65
2024/02/19 11:36:17;;;;;;;20.50;5.22;;;10.20;99.90;;;;;;5048897;28;20142;-64
2024/02/19 11:38:43;;;;;;;22.42;4.82;;;10.20;99.90;;;;;;5043615;28;20033;-64
2024/02/19 11:41:13;;;;;;;23.52;5.65;;;10.20;99.90;;;;;;5041237;28;20047;-64
2024/02/19 11:43:39;;;;;;;14.07;4.22;;;10.20;99.90;;;;;;5045232;28;20033;-65
2024/02/19 11:46:05;;;;;;;22.40;5.18;;;10.20;99.90;;;;;;5044421;28;20033;-64
2024/02/19 11:48:31;;;;;;;37.72;5.43;;;10.20;99.90;;;;;;5048763;28;20079;-65
2024/02/19 11:50:57;;;;;;;19.35;4.72;;;10.20;99.90;;;;;;5047346;28;20110;-64
2024/02/19 11:53:24;;;;;;;16.35;4.75;;;10.20;99.90;;;;;;5058246;28;20051;-64
2024/02/19 11:55:59;;;;;;;23.33;5.43;;;10.20;99.90;;;;;;5041455;28;20041;-64
2024/02/19 11:58:28;;;;;;;25.30;5.43;;;10.30;99.90;;;;;;5045453;28;20451;-65
2024/02/19 12:00:57;;;;;;;20.92;5.50;;;10.30;99.90;;;;;;5047247;28;20492;-65
2024/02/19 12:03:27;;;;;;;19.05;5.38;;;10.30;99.90;;;;;;5046635;28;20132;-64
2024/02/19 12:05:53;;;;;;;16.75;4.82;;;10.30;99.90;;;;;;5042061;28;20053;-64
2024/02/19 12:08:19;;;;;;;19.00;4.47;;;10.30;99.90;;;;;;5046730;28;20044;-65
2024/02/19 12:10:45;;;;;;;17.15;5.15;;;10.30;99.90;;;;;;5054497;28;20664;-64
2024/02/19 12:13:11;;;;;;;16.85;5.00;;;10.30;99.90;;;;;;5058262;28;20037;-65
2024/02/19 12:15:47;;;;;;;15.07;4.63;;;10.20;99.90;;;;;;5061243;28;20738;-64
2024/02/19 12:18:13;;;;;;;12.80;4.60;;;10.20;99.90;;;;;;5051741;28;20025;-65
2024/02/19 12:20:39;;;;;;;22.33;5.38;;;10.20;99.90;;;;;;5053286;28;20036;-65
2024/02/19 12:23:04;;;;;;;18.48;4.60;;;10.20;99.90;;;;;;5051959;28;20036;-65
2024/02/19 12:25:30;;;;;;;17.42;4.63;;;10.20;99.90;;;;;;5052368;28;20043;-64
2024/02/19 12:27:56;;;;;;;22.10;5.00;;;10.20;99.90;;;;;;5050918;28;20179;-65
2024/02/19 12:30:23;;;;;;;14.60;4.57;;;10.20;99.90;;;;;;5051261;28;20037;-65
2024/02/19 12:32:48;;;;;;;14.07;4.45;;;10.10;99.90;;;;;;5053664;28;20095;-65
2024/02/19 12:35:15;;;;;;;14.82;4.32;;;10.20;99.90;;;;;;5048458;28;20033;-65
2024/02/19 12:37:41;;;;;;;16.08;4.97;;;10.20;99.90;;;;;;5052017;28;20041;-64
2024/02/19 12:40:07;;;;;;;14.30;4.50;;;10.10;99.90;;;;;;5051108;28;20037;-65